Helga — D5BK2 — position and weather

sailwx.info

Track history (hours):
 
Tides and Currents Weather Stations Pressure Air Temp Water Temp Dewpoint Dewpoint Depression Visibility Wind Speed Wind Dir Waves Ship Positions

Helga

Last reported at 2017-Nov-20 00:31 UTC. Time now 2017-Nov-22 05:40 UTC.
Position N 46°20' E 030°39'.

Length 169 m; draft 5.3 m.

Type: Cargo ship. MMSI: 636092390.

Date/timePositionNaut miles runAvg speedWind from/ knotsBaromVisibWave heightAir tempDewpointWater temp
2017-Nov-20 00:31N 46°20' E 030°39'0 0.0
2017-Nov-19 23:59N 46°20' E 030°39'0 0.0
2017-Nov-19 23:31N 46°20' E 030°39'0 0.0
2017-Nov-19 22:59N 46°20' E 030°39'0 0.0
2017-Nov-19 22:30N 46°20' E 030°39'0 0.0
2017-Nov-19 21:59N 46°20' E 030°39'0 0.0
2017-Nov-19 21:30N 46°20' E 030°39'0 0.0
2017-Nov-19 20:59N 46°20' E 030°39'0 0.0
2017-Nov-19 20:31N 46°20' E 030°39'0 0.0
2017-Nov-19 19:59N 46°20' E 030°39'0 0.0
2017-Nov-19 19:30N 46°20' E 030°39'0 0.0
2017-Nov-19 19:00N 46°20' E 030°39'0 0.0
2017-Nov-19 18:30N 46°20' E 030°39'0 0.0
2017-Nov-19 17:59N 46°20' E 030°39'0 0.0
2017-Nov-19 17:31N 46°20' E 030°39'0 0.0
2017-Nov-19 16:59N 46°20' E 030°39'0 0.0
2017-Nov-19 16:31N 46°20' E 030°39'0 0.0
2017-Nov-19 15:59N 46°20' E 030°39'0 0.0
2017-Nov-19 15:31N 46°20' E 030°39'0 0.0
2017-Nov-19 14:59N 46°20' E 030°39'0 0.0
2017-Nov-19 14:31N 46°20' E 030°39'0 0.0
2017-Nov-19 14:00N 46°20' E 030°39'0 0.0
2017-Nov-19 13:30N 46°20' E 030°39'0 0.0
2017-Nov-19 12:59N 46°20' E 030°39'0 0.0
2017-Nov-19 12:31N 46°20' E 030°39'0 0.0
2017-Nov-19 11:59N 46°20' E 030°39'0 0.0
2017-Nov-19 11:30N 46°20' E 030°39'0 0.0
2017-Nov-19 10:59N 46°20' E 030°39'0 0.0
2017-Nov-19 10:30N 46°20' E 030°39'0 0.0
2017-Nov-19 09:59N 46°20' E 030°39'0 0.0
2017-Nov-19 09:31N 46°20' E 030°39'0 0.0
2017-Nov-19 09:00N 46°20' E 030°39'0 0.0
2017-Nov-19 08:30N 46°20' E 030°39'0 0.0
2017-Nov-19 07:59N 46°20' E 030°39'0 0.0
2017-Nov-19 07:30N 46°20' E 030°39'0 0.0
2017-Nov-19 06:59N 46°20' E 030°39'0 0.0
2017-Nov-19 06:30N 46°20' E 030°39'0 0.0
2017-Nov-19 06:00N 46°20' E 030°39'0 0.0
2017-Nov-19 05:31N 46°20' E 030°39'0 0.0
2017-Nov-19 05:00N 46°20' E 030°39'1 2.4
2017-Nov-19 04:30N 46°19' E 030°40'3 5.5
2017-Nov-19 03:59N 46°19' E 030°44'2 4.8
2017-Nov-19 03:30N 46°18' E 030°47'3 5.1
2017-Nov-19 03:00N 46°17' E 030°51'326 9.8
2017-Nov-17 17:52N 41°01' E 028°60'3 7.7
2017-Nov-17 17:30N 40°59' E 028°60'3 5.8
2017-Nov-17 17:00N 40°56' E 028°59'3 5.4
2017-Nov-17 16:30N 40°54' E 028°57'3 5.7
2017-Nov-17 16:00N 40°51' E 028°55'1 2.0
2017-Nov-17 15:19N 40°50' E 028°56'1 3.9
2017-Nov-17 15:00N 40°49' E 028°56'2 3.3
2017-Nov-17 14:30N 40°47' E 028°58'1 1.1
2017-Nov-17 13:58N 40°48' E 028°58'1 1.1
2017-Nov-17 13:30N 40°49' E 028°58'0 0.9
2017-Nov-17 13:00N 40°49' E 028°58'1 1.0
2017-Nov-17 12:28N 40°49' E 028°57'3 5.4
2017-Nov-17 11:59N 40°49' E 028°54'510.2
2017-Nov-17 11:29N 40°50' E 028°47'32210.1
2017-Nov-16 03:40N 37°02' E 023°55'212.5
2017-Nov-16 03:30N 37°00' E 023°54'  
Track history (hours):
 
Tides and Currents Weather Stations Pressure Air Temp Water Temp Dewpoint Dewpoint Depression Visibility Wind Speed Wind Dir Waves Ship Positions

Helga

Last reported at 2017-Nov-20 00:31 UTC. Time now 2017-Nov-22 05:40 UTC.
Position N 46°20' E 030°39'.

Length 169 m; draft 5.3 m.

Type: Cargo ship. MMSI: 636092390.

Date/timePositionNaut miles runAvg speedWind from/ knotsBaromVisibWave heightAir tempDewpointWater temp
2017-Nov-20 00:31N 46°20' E 030°39'0 0.0
2017-Nov-19 23:59N 46°20' E 030°39'0 0.0
2017-Nov-19 23:31N 46°20' E 030°39'0 0.0
2017-Nov-19 22:59N 46°20' E 030°39'0 0.0
2017-Nov-19 22:30N 46°20' E 030°39'0 0.0
2017-Nov-19 21:59N 46°20' E 030°39'0 0.0
2017-Nov-19 21:30N 46°20' E 030°39'0 0.0
2017-Nov-19 20:59N 46°20' E 030°39'0 0.0
2017-Nov-19 20:31N 46°20' E 030°39'0 0.0
2017-Nov-19 19:59N 46°20' E 030°39'0 0.0
2017-Nov-19 19:30N 46°20' E 030°39'0 0.0
2017-Nov-19 19:00N 46°20' E 030°39'0 0.0
2017-Nov-19 18:30N 46°20' E 030°39'0 0.0
2017-Nov-19 17:59N 46°20' E 030°39'0 0.0
2017-Nov-19 17:31N 46°20' E 030°39'0 0.0
2017-Nov-19 16:59N 46°20' E 030°39'0 0.0
2017-Nov-19 16:31N 46°20' E 030°39'0 0.0
2017-Nov-19 15:59N 46°20' E 030°39'0 0.0
2017-Nov-19 15:31N 46°20' E 030°39'0 0.0
2017-Nov-19 14:59N 46°20' E 030°39'0 0.0
2017-Nov-19 14:31N 46°20' E 030°39'0 0.0
2017-Nov-19 14:00N 46°20' E 030°39'0 0.0
2017-Nov-19 13:30N 46°20' E 030°39'0 0.0
2017-Nov-19 12:59N 46°20' E 030°39'0 0.0
2017-Nov-19 12:31N 46°20' E 030°39'0 0.0
2017-Nov-19 11:59N 46°20' E 030°39'0 0.0
2017-Nov-19 11:30N 46°20' E 030°39'0 0.0
2017-Nov-19 10:59N 46°20' E 030°39'0 0.0
2017-Nov-19 10:30N 46°20' E 030°39'0 0.0
2017-Nov-19 09:59N 46°20' E 030°39'0 0.0
2017-Nov-19 09:31N 46°20' E 030°39'0 0.0
2017-Nov-19 09:00N 46°20' E 030°39'0 0.0
2017-Nov-19 08:30N 46°20' E 030°39'0 0.0
2017-Nov-19 07:59N 46°20' E 030°39'0 0.0
2017-Nov-19 07:30N 46°20' E 030°39'0 0.0
2017-Nov-19 06:59N 46°20' E 030°39'0 0.0
2017-Nov-19 06:30N 46°20' E 030°39'0 0.0
2017-Nov-19 06:00N 46°20' E 030°39'0 0.0
2017-Nov-19 05:31N 46°20' E 030°39'0 0.0
2017-Nov-19 05:00N 46°20' E 030°39'1 2.4
2017-Nov-19 04:30N 46°19' E 030°40'3 5.5
2017-Nov-19 03:59N 46°19' E 030°44'2 4.8
2017-Nov-19 03:30N 46°18' E 030°47'3 5.1
2017-Nov-19 03:00N 46°17' E 030°51'326 9.8
2017-Nov-17 17:52N 41°01' E 028°60'3 7.7
2017-Nov-17 17:30N 40°59' E 028°60'3 5.8
2017-Nov-17 17:00N 40°56' E 028°59'3 5.4
2017-Nov-17 16:30N 40°54' E 028°57'3 5.7
2017-Nov-17 16:00N 40°51' E 028°55'1 2.0
2017-Nov-17 15:19N 40°50' E 028°56'1 3.9
2017-Nov-17 15:00N 40°49' E 028°56'2 3.3
2017-Nov-17 14:30N 40°47' E 028°58'1 1.1
2017-Nov-17 13:58N 40°48' E 028°58'1 1.1
2017-Nov-17 13:30N 40°49' E 028°58'0 0.9
2017-Nov-17 13:00N 40°49' E 028°58'1 1.0
2017-Nov-17 12:28N 40°49' E 028°57'3 5.4
2017-Nov-17 11:59N 40°49' E 028°54'510.2
2017-Nov-17 11:29N 40°50' E 028°47'32210.1
2017-Nov-16 03:40N 37°02' E 023°55'212.5
2017-Nov-16 03:30N 37°00' E 023°54'  

Dump ship's entire track history